CheckWX is a tool to help pilots better visualize weather data.  It is not intended as a substitute for an official pre-flight weather briefing.

22:35:42 UTC

KALK METAR
Pioneer Airfield
Pioneer Airfield, Arizona, USA
Current

40 mins ago

KALK 262156Z AUTO 26012KT 10SM CLR 27/M08 A3007 RMK AO2 SLP099 T02721083
Observed
Mar-26 @ 21:56 UTC
Wind
  • 260° at 12 KTS
Visibility
10 SM
Flight Rules
VFR
Cloud Levels
  • Clear skies
Temperature
27°C / 81°F
Dewpoint
-8°C / 18°F
Humidity
9%
Altimeter
30.07" Hg
Pressure
1009.9 hPa
Previous

3 hours ago

KALK 261956Z AUTO 26007KT 10SM CLR 26/M09 A3010 RMK AO2 SLP110 T02611094 $
Observed
Mar-26 @ 19:56 UTC
Wind
  • 260° at 7 KTS
Visibility
10 SM
Flight Rules
VFR
Cloud Levels
  • Clear skies
Temperature
26°C / 79°F
Dewpoint
-9°C / 16°F
Humidity
9%
Altimeter
30.1" Hg
Pressure
1011 hPa
Previous

4 hours ago

KALK 261856Z AUTO 28010G15KT 10SM CLR 26/M11 A3012 RMK AO2 SLP117 T02561111 $
Observed
Mar-26 @ 18:56 UTC
Wind
  • 280° at 10 KTS
  • Gusting to 15 KTS
Visibility
10 SM
Flight Rules
VFR
Cloud Levels
  • Clear skies
Temperature
26°C / 79°F
Dewpoint
-11°C / 12°F
Humidity
8%
Altimeter
30.12" Hg
Pressure
1011.7 hPa